Time,TemperatureF,DewpointF,PressureIn,WindDirection,WindDirectionDegrees,WindSpeedMPH,WindSpeedGustMPH,Humidity,HourlyPrecipIn,Conditions,Clouds,dailyrainin,SolarRadiationWatts/m^2,SoftwareType,DateUTC
2013-09-25 00:10:00,59.5,50.0,29.95,SSW,192,3.0,9.0,72,0.00,,,0.00,0,weatherlink.com 1.10,2013-09-25 07:10:00,
2013-09-25 00:25:00,59.0,51.0,29.94,SE,146,0.0,9.0,74,0.00,,,0.00,0,weatherlink.com 1.10,2013-09-25 07:25:00,
2013-09-25 00:40:00,58.8,51.0,29.94,North,9,7.0,7.0,75,0.00,,,0.00,0,weatherlink.com 1.10,2013-09-25 07:40:00,
2013-09-25 00:55:00,58.7,50.0,29.94,South,179,3.0,12.0,74,0.00,,,0.00,0,weatherlink.com 1.10,2013-09-25 07:55:00,
2013-09-25 01:10:00,58.6,51.0,29.94,SSW,193,0.0,9.0,76,0.00,,,0.00,0,weatherlink.com 1.10,2013-09-25 08:10:00,
2013-09-25 01:25:00,58.4,52.0,29.95,SW,222,3.0,11.0,78,0.00,,,0.00,0,weatherlink.com 1.10,2013-09-25 08:25:00,
2013-09-25 01:40:00,57.9,52.0,29.95,SSW,201,5.0,7.0,80,0.00,,,0.00,0,weatherlink.com 1.10,2013-09-25 08:40:00,
2013-09-25 01:55:00,57.5,52.0,29.95,WSW,237,0.0,6.0,81,0.00,,,0.00,0,weatherlink.com 1.10,2013-09-25 08:55:00,
2013-09-25 02:10:00,57.4,52.0,29.96,SW,217,8.0,9.0,81,0.00,,,0.00,0,weatherlink.com 1.10,2013-09-25 09:10:00,
2013-09-25 02:25:00,57.2,52.0,29.96,NNW,339,2.0,13.0,82,0.00,,,0.00,0,weatherlink.com 1.10,2013-09-25 09:25:00,
2013-09-25 02:40:00,57.0,52.0,29.95,SW,223,3.0,9.0,82,0.00,,,0.00,0,weatherlink.com 1.10,2013-09-25 09:40:00,
2013-09-25 02:55:00,56.9,52.0,29.95,WSW,243,4.0,7.0,83,0.00,,,0.00,0,weatherlink.com 1.10,2013-09-25 09:55:00,
2013-09-25 03:10:00,56.8,51.0,29.95,SW,232,0.0,10.0,82,0.00,,,0.00,0,weatherlink.com 1.10,2013-09-25 10:10:00,
2013-09-25 03:25:00,56.8,51.0,29.94,NW,306,1.0,10.0,81,0.00,,,0.00,0,weatherlink.com 1.10,2013-09-25 10:25:00,
2013-09-25 03:40:00,56.8,51.0,29.95,WSW,245,5.0,12.0,82,0.00,,,0.00,0,weatherlink.com 1.10,2013-09-25 10:40:00,
2013-09-25 03:55:00,56.6,52.0,29.95,WSW,247,2.0,13.0,83,0.00,,,0.00,0,weatherlink.com 1.10,2013-09-25 10:55:00,
2013-09-25 04:10:00,56.5,51.0,29.94,SSW,202,1.0,9.0,83,0.00,,,0.00,0,weatherlink.com 1.10,2013-09-25 11:10:00,
2013-09-25 04:25:00,56.4,51.0,29.94,NNW,328,3.0,13.0,82,0.00,,,0.00,0,weatherlink.com 1.10,2013-09-25 11:25:00,
2013-09-25 04:40:00,56.3,51.0,29.94,NNE,23,1.0,10.0,82,0.00,,,0.00,0,weatherlink.com 1.10,2013-09-25 11:40:00,
2013-09-25 04:55:00,56.2,51.0,29.94,SW,228,0.0,4.0,83,0.00,,,0.00,0,weatherlink.com 1.10,2013-09-25 11:55:00,
2013-09-25 05:10:00,56.2,51.0,29.94,WSW,239,0.0,6.0,83,0.00,,,0.00,0,weatherlink.com 1.10,2013-09-25 12:10:00,
2013-09-25 05:25:00,56.2,51.0,29.94,SW,222,3.0,6.0,82,0.00,,,0.00,0,weatherlink.com 1.10,2013-09-25 12:25:00,
2013-09-25 05:40:00,56.4,50.0,29.94,SW,218,1.0,5.0,80,0.00,,,0.00,0,weatherlink.com 1.10,2013-09-25 12:40:00,
2013-09-25 05:55:00,56.6,51.0,29.94,SW,224,1.0,3.0,80,0.00,,,0.00,0,weatherlink.com 1.10,2013-09-25 12:55:00,
2013-09-25 06:10:00,56.3,51.0,29.95,SW,219,4.0,6.0,81,0.00,,,0.00,0,weatherlink.com 1.10,2013-09-25 13:10:00,
2013-09-25 06:25:00,56.1,50.0,29.95,WSW,258,1.0,6.0,81,0.00,,,0.00,0,weatherlink.com 1.10,2013-09-25 13:25:00,
2013-09-25 06:40:00,56.0,50.0,29.95,WSW,240,0.0,5.0,81,0.00,,,0.00,0,weatherlink.com 1.10,2013-09-25 13:40:00,
2013-09-25 06:55:00,56.0,50.0,29.96,North,351,2.0,5.0,81,0.00,,,0.00,0,weatherlink.com 1.10,2013-09-25 13:55:00,
2013-09-25 07:10:00,55.9,50.0,29.96,SW,230,4.0,5.0,81,0.00,,,0.00,11,weatherlink.com 1.10,2013-09-25 14:10:00,
2013-09-25 07:25:00,56.2,50.0,29.96,SW,229,0.0,5.0,80,0.00,,,0.00,26,weatherlink.com 1.10,2013-09-25 14:25:00,
2013-09-25 07:40:00,56.7,50.0,29.96,SW,236,0.0,6.0,79,0.00,,,0.00,62,weatherlink.com 1.10,2013-09-25 14:40:00,
2013-09-25 07:56:00,57.2,50.0,29.96,SW,217,2.0,7.0,76,0.00,,,0.00,109,weatherlink.com 1.10,2013-09-25 14:56:00,
2013-09-25 08:11:00,58.0,49.0,29.96,WSW,243,3.0,5.0,73,0.00,,,0.00,169,weatherlink.com 1.10,2013-09-25 15:11:00,
2013-09-25 08:26:00,58.7,50.0,29.96,WSW,241,0.0,4.0,72,0.00,,,0.00,220,weatherlink.com 1.10,2013-09-25 15:26:00,
2013-09-25 08:41:00,60.3,49.0,29.96,SW,229,7.0,7.0,67,0.00,,,0.00,267,weatherlink.com 1.10,2013-09-25 15:41:00,
2013-09-25 08:56:00,61.8,48.0,29.96,SSW,200,3.0,6.0,62,0.00,,,0.00,318,weatherlink.com 1.10,2013-09-25 15:56:00,
2013-09-25 09:11:00,61.3,48.0,29.97,NNW,333,4.0,10.0,63,0.00,,,0.00,366,weatherlink.com 1.10,2013-09-25 16:11:00,
2013-09-25 09:26:00,61.5,49.0,29.97,SW,220,3.0,10.0,63,0.00,,,0.00,408,weatherlink.com 1.10,2013-09-25 16:26:00,
2013-09-25 09:41:00,61.9,49.0,29.97,SW,223,3.0,9.0,63,0.00,,,0.00,452,weatherlink.com 1.10,2013-09-25 16:41:00,
2013-09-25 09:56:00,61.9,50.0,29.97,SW,216,2.0,8.0,65,0.00,,,0.00,494,weatherlink.com 1.10,2013-09-25 16:56:00,
2013-09-25 10:11:00,62.7,51.0,29.96,SW,229,8.0,8.0,65,0.00,,,0.00,531,weatherlink.com 1.10,2013-09-25 17:11:00,
2013-09-25 10:26:00,62.8,50.0,29.96,SW,229,6.0,11.0,63,0.00,,,0.00,570,weatherlink.com 1.10,2013-09-25 17:26:00,
2013-09-25 10:41:00,63.8,50.0,29.97,South,191,5.0,10.0,61,0.00,,,0.00,603,weatherlink.com 1.10,2013-09-25 17:41:00,
2013-09-25 10:56:00,64.3,51.0,29.97,SSW,198,6.0,9.0,63,0.00,,,0.00,633,weatherlink.com 1.10,2013-09-25 17:56:00,
2013-09-25 11:11:00,64.0,51.0,29.97,SW,223,0.0,12.0,63,0.00,,,0.00,670,weatherlink.com 1.10,2013-09-25 18:11:00,
2013-09-25 11:42:00,65.8,50.0,29.96,NNW,342,4.0,8.0,58,0.00,,,0.00,712,weatherlink.com 1.10,2013-09-25 18:42:00,
2013-09-25 11:57:00,66.3,50.0,29.96,SW,232,4.0,9.0,56,0.00,,,0.00,729,weatherlink.com 1.10,2013-09-25 18:57:00,
2013-09-25 12:12:00,65.3,49.0,29.95,SSW,204,2.0,12.0,57,0.00,,,0.00,742,weatherlink.com 1.10,2013-09-25 19:12:00,
2013-09-25 12:27:00,66.9,51.0,29.95,NE,50,0.0,9.0,58,0.00,,,0.00,752,weatherlink.com 1.10,2013-09-25 19:27:00,
2013-09-25 12:42:00,65.6,51.0,29.94,WSW,242,5.0,14.0,59,0.00,,,0.00,761,weatherlink.com 1.10,2013-09-25 19:42:00,
2013-09-25 12:57:00,65.0,51.0,29.94,SSW,205,4.0,12.0,61,0.00,,,0.00,765,weatherlink.com 1.10,2013-09-25 19:57:00,
2013-09-25 13:12:00,65.7,51.0,29.94,SW,229,7.0,13.0,60,0.00,,,0.00,763,weatherlink.com 1.10,2013-09-25 20:12:00,
2013-09-25 13:27:00,66.0,51.0,29.93,SSW,206,0.0,12.0,59,0.00,,,0.00,759,weatherlink.com 1.10,2013-09-25 20:27:00,
2013-09-25 13:42:00,65.6,50.0,29.93,SW,226,3.0,16.0,58,0.00,,,0.00,751,weatherlink.com 1.10,2013-09-25 20:42:00,
2013-09-25 13:57:00,65.0,50.0,29.93,SSW,205,6.0,20.0,58,0.00,,,0.00,749,weatherlink.com 1.10,2013-09-25 20:57:00,
2013-09-25 14:12:00,64.8,49.0,29.92,WSW,250,3.0,17.0,58,0.00,,,0.00,728,weatherlink.com 1.10,2013-09-25 21:12:00,
2013-09-25 14:27:00,65.0,49.0,29.92,NE,55,3.0,16.0,57,0.00,,,0.00,710,weatherlink.com 1.10,2013-09-25 21:27:00,
2013-09-25 14:42:00,65.0,49.0,29.92,WNW,295,6.0,18.0,57,0.00,,,0.00,687,weatherlink.com 1.10,2013-09-25 21:42:00,
2013-09-25 14:57:00,64.2,49.0,29.91,SW,233,2.0,20.0,58,0.00,,,0.00,663,weatherlink.com 1.10,2013-09-25 21:57:00,
2013-09-25 15:12:00,64.3,48.0,29.91,SW,221,4.0,22.0,56,0.00,,,0.00,636,weatherlink.com 1.10,2013-09-25 22:12:00,
2013-09-25 15:27:00,63.5,49.0,29.90,WSW,250,2.0,21.0,60,0.00,,,0.00,605,weatherlink.com 1.10,2013-09-25 22:27:00,
2013-09-25 15:42:00,64.1,50.0,29.90,West,260,3.0,11.0,60,0.00,,,0.00,568,weatherlink.com 1.10,2013-09-25 22:42:00,
2013-09-25 15:57:00,63.5,50.0,29.90,SW,216,2.0,16.0,61,0.00,,,0.00,531,weatherlink.com 1.10,2013-09-25 22:57:00,
2013-09-25 16:12:00,63.6,50.0,29.89,SW,221,12.0,18.0,61,0.00,,,0.00,492,weatherlink.com 1.10,2013-09-25 23:12:00,
2013-09-25 16:27:00,62.5,50.0,29.89,WNW,285,6.0,17.0,63,0.00,,,0.00,452,weatherlink.com 1.10,2013-09-25 23:27:00,
2013-09-25 16:42:00,62.6,50.0,29.89,SW,220,3.0,21.0,64,0.00,,,0.00,406,weatherlink.com 1.10,2013-09-25 23:42:00,
2013-09-25 16:57:00,62.5,50.0,29.88,SW,227,3.0,23.0,65,0.00,,,0.00,364,weatherlink.com 1.10,2013-09-25 23:57:00,
2013-09-25 17:12:00,62.5,50.0,29.88,SW,235,2.0,16.0,64,0.00,,,0.00,313,weatherlink.com 1.10,2013-09-26 00:12:00,
2013-09-25 17:27:00,62.9,50.0,29.87,SW,231,2.0,9.0,62,0.00,,,0.00,265,weatherlink.com 1.10,2013-09-26 00:27:00,
2013-09-25 17:42:00,62.4,49.0,29.87,WSW,251,4.0,16.0,62,0.00,,,0.00,102,weatherlink.com 1.10,2013-09-26 00:42:00,
2013-09-25 17:57:00,61.6,49.0,29.87,SSW,196,9.0,15.0,63,0.00,,,0.00,30,weatherlink.com 1.10,2013-09-26 00:57:00,
2013-09-25 18:12:00,61.6,48.0,29.86,WSW,237,1.0,17.0,61,0.00,,,0.00,25,weatherlink.com 1.10,2013-09-26 01:12:00,
2013-09-25 18:27:00,60.7,48.0,29.86,WSW,245,8.0,17.0,64,0.00,,,0.00,19,weatherlink.com 1.10,2013-09-26 01:27:00,
2013-09-25 18:42:00,60.0,48.0,29.86,SW,229,4.0,14.0,65,0.00,,,0.00,14,weatherlink.com 1.10,2013-09-26 01:42:00,
2013-09-25 18:57:00,59.4,49.0,29.85,NW,318,2.0,13.0,68,0.00,,,0.00,7,weatherlink.com 1.10,2013-09-26 01:57:00,
2013-09-25 19:12:00,58.7,49.0,29.85,NNW,348,4.0,10.0,69,0.00,,,0.00,0,weatherlink.com 1.10,2013-09-26 02:12:00,
2013-09-25 19:27:00,58.4,48.0,29.85,SW,229,0.0,8.0,69,0.00,,,0.00,0,weatherlink.com 1.10,2013-09-26 02:27:00,
2013-09-25 19:42:00,58.4,48.0,29.85,WSW,240,4.0,10.0,68,0.00,,,0.00,0,weatherlink.com 1.10,2013-09-26 02:42:00,
2013-09-25 19:57:00,58.5,47.0,29.85,SSW,204,0.0,13.0,66,0.00,,,0.00,0,weatherlink.com 1.10,2013-09-26 02:57:00,
2013-09-25 20:12:00,58.5,47.0,29.86,WNW,302,1.0,9.0,65,0.00,,,0.00,0,weatherlink.com 1.10,2013-09-26 03:12:00,
2013-09-25 20:27:00,58.3,47.0,29.86,WNW,303,1.0,8.0,66,0.00,,,0.00,0,weatherlink.com 1.10,2013-09-26 03:27:00,
2013-09-25 20:42:00,58.2,47.0,29.86,SSW,211,2.0,10.0,66,0.00,,,0.00,0,weatherlink.com 1.10,2013-09-26 03:42:00,
2013-09-25 20:57:00,58.2,47.0,29.86,NW,306,0.0,10.0,67,0.00,,,0.00,0,weatherlink.com 1.10,2013-09-26 03:57:00,
2013-09-25 21:12:00,57.9,48.0,29.86,SW,227,1.0,11.0,69,0.00,,,0.00,0,weatherlink.com 1.10,2013-09-26 04:12:00,
2013-09-25 21:27:00,57.8,48.0,29.86,SW,228,2.0,10.0,69,0.00,,,0.00,0,weatherlink.com 1.10,2013-09-26 04:27:00,
2013-09-25 21:42:00,57.9,47.0,29.86,NNW,343,1.0,10.0,68,0.00,,,0.00,0,weatherlink.com 1.10,2013-09-26 04:42:00,
2013-09-25 21:57:00,58.8,46.0,29.86,SSE,160,2.0,6.0,63,0.00,,,0.00,0,weatherlink.com 1.10,2013-09-26 04:57:00,
2013-09-25 22:12:00,59.5,46.0,29.87,NNW,333,3.0,5.0,61,0.00,,,0.00,0,weatherlink.com 1.10,2013-09-26 05:12:00,
2013-09-25 22:27:00,59.6,45.0,29.87,NW,304,0.0,6.0,60,0.00,,,0.00,0,weatherlink.com 1.10,2013-09-26 05:27:00,
2013-09-25 22:42:00,59.3,46.0,29.87,NW,314,3.0,4.0,61,0.00,,,0.00,0,weatherlink.com 1.10,2013-09-26 05:42:00,
2013-09-25 22:57:00,59.3,46.0,29.87,NNW,345,1.0,7.0,61,0.00,,,0.00,0,weatherlink.com 1.10,2013-09-26 05:57:00,
2013-09-25 23:13:00,59.2,46.0,29.87,NNW,330,0.0,5.0,61,0.00,,,0.00,0,weatherlink.com 1.10,2013-09-26 06:13:00,
2013-09-25 23:28:00,58.2,47.0,29.87,SW,232,2.0,5.0,66,0.00,,,0.00,0,weatherlink.com 1.10,2013-09-26 06:28:00,
2013-09-25 23:43:00,57.3,48.0,29.87,SW,236,3.0,4.0,71,0.00,,,0.00,0,weatherlink.com 1.10,2013-09-26 06:43:00,
2013-09-25 23:58:00,56.9,48.0,29.87,SW,218,0.0,5.0,71,0.00,,,0.00,0,weatherlink.com 1.10,2013-09-26 06:58:00,